createdAt,value
2022-11-26T00:02:36.804Z,101791.91
2022-11-26T00:06:44.543Z,101789.28
2022-11-26T00:10:48.532Z,101783.63
2022-11-26T00:14:50.735Z,101780.34
2022-11-26T00:18:52.177Z,101780.16
2022-11-26T00:22:56.841Z,101794.31
2022-11-26T00:27:00.216Z,101804.97
2022-11-26T00:31:05.059Z,101810.25
2022-11-26T00:35:06.867Z,101812.50
2022-11-26T00:39:26.368Z,101813.56
2022-11-26T00:43:28.162Z,101817.22
2022-11-26T00:47:29.632Z,101821.81
2022-11-26T00:51:31.212Z,101827.31
2022-11-26T00:55:38.743Z,101832.66
2022-11-26T00:59:40.156Z,101833.97
2022-11-26T01:03:42.890Z,101835.59
2022-11-26T01:07:45.479Z,101839.09
2022-11-26T01:11:52.336Z,101848.56
2022-11-26T01:15:57.147Z,101856.03
2022-11-26T01:19:58.591Z,101850.94
2022-11-26T01:24:00.025Z,101857.16
2022-11-26T01:28:01.489Z,101862.78
2022-11-26T01:32:03.077Z,101865.94
2022-11-26T01:36:17.996Z,101866.06
2022-11-26T01:40:32.639Z,101873.00
2022-11-26T01:44:36.961Z,101876.66
2022-11-26T01:48:38.767Z,101877.66
2022-11-26T01:52:40.377Z,101881.53
2022-11-26T01:56:47.741Z,101882.00
2022-11-26T02:00:51.253Z,101884.25
2022-11-26T02:05:11.790Z,101881.31
2022-11-26T02:09:13.831Z,101881.09
2022-11-26T02:13:15.306Z,101886.72
2022-11-26T02:17:49.286Z,101892.09
2022-11-26T02:21:59.327Z,101904.75
2022-11-26T02:26:38.145Z,101906.25
2022-11-26T02:30:46.071Z,101906.53
2022-11-26T02:35:09.116Z,101905.72
2022-11-26T02:39:17.656Z,101920.22
2022-11-26T02:43:20.228Z,101921.63
2022-11-26T02:47:24.755Z,101924.19
2022-11-26T02:51:31.964Z,101926.66
2022-11-26T02:55:38.458Z,101924.81
2022-11-26T02:59:42.786Z,101922.94
2022-11-26T03:03:48.813Z,101926.19
2022-11-26T03:07:52.851Z,101920.34
2022-11-26T03:11:54.379Z,101924.34
2022-11-26T03:15:55.912Z,101930.47
2022-11-26T03:19:57.511Z,101933.22
2022-11-26T03:23:59.044Z,101939.19
2022-11-26T03:28:01.111Z,101954.44
2022-11-26T03:32:02.648Z,101961.50
2022-11-26T03:36:04.552Z,101971.94
2022-11-26T03:40:07.348Z,101964.97
2022-11-26T03:44:08.857Z,101969.94
2022-11-26T03:48:10.393Z,101968.25
2022-11-26T03:52:12.166Z,101965.78
2022-11-26T03:56:13.703Z,101974.75
2022-11-26T04:00:15.548Z,101968.78
2022-11-26T04:04:17.089Z,101985.50
2022-11-26T04:08:18.576Z,101991.16
2022-11-26T04:12:20.005Z,101993.69
2022-11-26T04:16:22.067Z,101992.00
2022-11-26T04:20:23.560Z,102005.69
2022-11-26T04:24:25.093Z,101997.25
2022-11-26T04:28:26.583Z,102004.19
2022-11-26T04:32:28.115Z,102009.00
2022-11-26T04:36:29.667Z,102019.41
2022-11-26T04:40:31.617Z,102022.75
2022-11-26T04:44:33.062Z,102028.41
2022-11-26T04:48:34.619Z,102034.94
2022-11-26T04:52:36.451Z,102035.47
2022-11-26T04:56:37.899Z,102046.81
2022-11-26T05:00:40.269Z,102057.88
2022-11-26T05:04:41.852Z,102059.50
2022-11-26T05:08:43.390Z,102076.75
2022-11-26T05:12:44.884Z,102074.22
2022-11-26T05:16:46.453Z,102078.31
2022-11-26T05:20:48.123Z,102082.19
2022-11-26T05:24:49.641Z,102093.34
2022-11-26T05:28:51.121Z,102093.94
2022-11-26T05:32:52.595Z,102107.84
2022-11-26T05:36:54.186Z,102114.72
2022-11-26T05:40:55.825Z,102111.34
2022-11-26T05:44:57.438Z,102099.78
2022-11-26T05:48:58.928Z,102100.59
2022-11-26T05:53:00.612Z,102101.91
2022-11-26T05:57:02.062Z,102112.44
2022-11-26T06:01:09.033Z,102115.81
2022-11-26T06:05:11.546Z,102118.19
2022-11-26T06:09:13.781Z,102126.47
2022-11-26T06:13:15.409Z,102135.78
2022-11-26T06:17:16.920Z,102134.53
2022-11-26T06:21:18.482Z,102138.03
2022-11-26T06:25:20.075Z,102155.19
2022-11-26T06:29:27.558Z,102154.28
2022-11-26T06:33:29.570Z,102162.69
2022-11-26T06:37:31.983Z,102166.06
2022-11-26T06:41:33.478Z,102183.94
2022-11-26T06:45:35.237Z,102173.19
2022-11-26T06:49:37.199Z,102175.03
2022-11-26T06:53:39.144Z,102189.97
2022-11-26T06:57:42.251Z,102201.44
2022-11-26T07:01:46.701Z,102200.13
2022-11-26T07:05:48.254Z,102206.56
2022-11-26T07:09:49.795Z,102209.31
2022-11-26T07:13:52.317Z,102215.34
2022-11-26T07:17:58.079Z,102217.59
2022-11-26T07:22:00.708Z,102219.22
2022-11-26T07:26:03.366Z,102224.75
2022-11-26T07:30:09.520Z,102219.94
2022-11-26T07:34:10.982Z,102228.31
2022-11-26T07:38:12.556Z,102232.75
2022-11-26T07:42:14.595Z,102234.56
2022-11-26T07:46:20.137Z,102237.22
2022-11-26T07:50:23.602Z,102245.63
2022-11-26T07:54:25.173Z,102252.78
2022-11-26T07:58:29.411Z,102249.72
2022-11-26T08:02:31.036Z,102246.25
2022-11-26T08:06:33.557Z,102258.75
2022-11-26T08:10:35.167Z,102260.25
2022-11-26T08:14:37.070Z,102269.84
2022-11-26T08:18:39.464Z,102264.88
2022-11-26T08:22:41.521Z,102272.34
2022-11-26T08:26:44.786Z,102270.16
2022-11-26T08:30:47.745Z,102276.22
2022-11-26T08:34:49.242Z,102271.81
2022-11-26T08:38:50.790Z,102276.34
2022-11-26T08:42:52.317Z,102280.72
2022-11-26T08:46:53.809Z,102291.66
2022-11-26T08:51:03.863Z,102294.44
2022-11-26T08:55:05.621Z,102292.44
2022-11-26T08:59:07.089Z,102294.84
2022-11-26T09:03:08.700Z,102300.28
2022-11-26T09:07:10.283Z,102310.31
2022-11-26T09:11:12.191Z,102315.25
2022-11-26T09:15:13.698Z,102329.34
2022-11-26T09:19:15.686Z,102332.09
2022-11-26T09:23:17.109Z,102334.00
2022-11-26T09:27:18.573Z,102338.28
2022-11-26T09:31:20.637Z,102345.59
2022-11-26T09:35:22.173Z,102351.84
2022-11-26T09:39:23.660Z,102360.50
2022-11-26T09:43:53.445Z,102362.84
2022-11-26T09:47:55.146Z,102368.16
2022-11-26T09:51:59.360Z,102366.63
2022-11-26T09:56:01.546Z,102368.50
2022-11-26T10:00:04.893Z,102366.50
2022-11-26T10:04:18.085Z,102364.75
2022-11-26T10:08:56.457Z,102379.66
2022-11-26T10:13:18.430Z,102377.81
2022-11-26T10:17:36.370Z,102371.41
2022-11-26T10:26:15.417Z,102380.91
2022-11-26T10:30:23.340Z,102370.50
2022-11-26T10:34:39.497Z,102380.13
2022-11-26T10:38:41.195Z,102384.00
2022-11-26T10:42:56.066Z,102396.06
2022-11-26T10:46:58.797Z,102392.97
2022-11-26T10:51:06.079Z,102393.97
2022-11-26T10:55:26.878Z,102406.78
2022-11-26T10:59:46.093Z,102419.31
2022-11-26T11:04:08.860Z,102417.75
2022-11-26T11:08:32.468Z,102413.97
2022-11-26T11:12:39.005Z,102405.34
2022-11-26T11:16:45.967Z,102412.19
2022-11-26T11:20:56.321Z,102411.63
2022-11-26T11:24:59.826Z,102414.66
2022-11-26T11:29:01.301Z,102417.47
2022-11-26T11:33:14.841Z,102426.84
2022-11-26T11:37:21.188Z,102413.78
2022-11-26T11:41:48.333Z,102423.50
2022-11-26T11:46:02.892Z,102419.31
2022-11-26T11:50:13.732Z,102426.63
2022-11-26T11:54:31.320Z,102426.13
2022-11-26T11:58:44.654Z,102431.47
2022-11-26T12:03:12.247Z,102436.09
2022-11-26T12:07:22.516Z,102438.41
2022-11-26T12:11:48.846Z,102439.19
2022-11-26T12:16:00.949Z,102435.72
2022-11-26T12:20:13.947Z,102425.16
2022-11-26T12:24:29.164Z,102433.81
2022-11-26T12:28:58.290Z,102431.38
2022-11-26T12:33:05.961Z,102419.09
2022-11-26T12:37:19.426Z,102419.97
2022-11-26T12:41:32.142Z,102425.53
2022-11-26T12:45:58.524Z,102410.78
2022-11-26T12:50:21.060Z,102421.25
2022-11-26T12:54:39.320Z,102422.75
2022-11-26T12:58:54.417Z,102431.31
2022-11-26T13:02:56.153Z,102428.03
2022-11-26T13:07:00.228Z,102428.13
2022-11-26T13:11:26.189Z,102443.50
2022-11-26T13:15:35.536Z,102445.94
2022-11-26T13:19:47.561Z,102445.88
2022-11-26T13:24:20.789Z,102447.75
2022-11-26T13:28:44.151Z,102449.91
2022-11-26T13:33:16.474Z,102450.22
2022-11-26T13:37:27.022Z,102455.88
2022-11-26T13:41:40.494Z,102462.22
2022-11-26T13:45:59.323Z,102462.75
2022-11-26T13:50:12.501Z,102456.09
2022-11-26T13:54:22.594Z,102463.06
2022-11-26T13:58:30.386Z,102466.38
2022-11-26T14:02:36.531Z,102477.09
2022-11-26T14:06:58.621Z,102471.34
2022-11-26T14:11:00.090Z,102473.03
2022-11-26T14:15:01.489Z,102466.94
2022-11-26T14:19:08.968Z,102472.16
2022-11-26T14:23:41.554Z,102481.47
2022-11-26T14:27:55.388Z,102480.28
2022-11-26T14:31:56.911Z,102475.25
2022-11-26T14:35:59.258Z,102466.38
2022-11-26T14:40:10.498Z,102468.44
2022-11-26T14:44:14.160Z,102466.16
2022-11-26T14:48:27.748Z,102457.81
2022-11-26T14:52:34.596Z,102473.50
2022-11-26T14:56:40.892Z,102475.44
2022-11-26T15:01:02.134Z,102484.16
2022-11-26T15:05:14.417Z,102499.44
2022-11-26T15:09:19.087Z,102496.09
2022-11-26T15:13:31.631Z,102505.28
2022-11-26T15:17:34.120Z,102505.22
2022-11-26T15:21:35.691Z,102503.72
2022-11-26T15:25:38.204Z,102499.00
2022-11-26T15:29:41.420Z,102504.31
2022-11-26T15:33:44.205Z,102503.03
2022-11-26T15:37:45.665Z,102498.50
2022-11-26T15:41:47.099Z,102503.63
2022-11-26T15:45:49.675Z,102496.09
2022-11-26T15:49:58.727Z,102493.81
2022-11-26T15:54:02.485Z,102493.13
2022-11-26T15:58:11.505Z,102485.66
2022-11-26T16:02:21.830Z,102491.34
2022-11-26T16:07:08.909Z,102498.50
2022-11-26T16:11:20.828Z,102499.31
2022-11-26T16:15:27.259Z,102496.47
2022-11-26T16:19:30.108Z,102488.38
2022-11-26T16:23:31.595Z,102481.19
2022-11-26T16:27:33.731Z,102479.47
2022-11-26T16:31:35.125Z,102484.53
2022-11-26T16:35:45.807Z,102482.97
2022-11-26T16:39:49.713Z,102504.69
2022-11-26T16:43:51.378Z,102510.56
2022-11-26T16:47:55.232Z,102515.28
2022-11-26T16:51:56.677Z,102521.56
2022-11-26T16:55:58.429Z,102540.06
2022-11-26T17:00:03.116Z,102540.69
2022-11-26T17:04:04.580Z,102539.00
2022-11-26T17:08:09.454Z,102551.09
2022-11-26T17:12:19.225Z,102544.69
2022-11-26T17:16:22.898Z,102544.41
2022-11-26T17:20:25.532Z,102549.41
2022-11-26T17:24:31.258Z,102548.50
2022-11-26T17:28:33.190Z,102543.38
2022-11-26T17:32:34.918Z,102544.84
2022-11-26T17:36:37.162Z,102540.22
2022-11-26T17:40:38.661Z,102543.88
2022-11-26T17:44:40.146Z,102542.34
2022-11-26T17:48:41.623Z,102549.13
2022-11-26T17:52:43.064Z,102542.47
2022-11-26T17:56:44.485Z,102542.38
2022-11-26T18:00:45.902Z,102537.78
2022-11-26T18:04:47.528Z,102543.69
2022-11-26T18:08:49.037Z,102552.06
2022-11-26T18:12:53.302Z,102550.81
2022-11-26T18:16:55.203Z,102549.69
2022-11-26T18:20:56.772Z,102552.09
2022-11-26T18:24:58.354Z,102552.91
2022-11-26T18:29:01.759Z,102546.13
2022-11-26T18:33:03.212Z,102543.28
2022-11-26T18:37:04.678Z,102544.59
2022-11-26T18:41:06.760Z,102543.19
2022-11-26T18:45:10.635Z,102546.03
2022-11-26T18:49:12.055Z,102540.88
2022-11-26T18:53:13.673Z,102531.03
2022-11-26T18:57:15.059Z,102533.06
2022-11-26T19:01:26.026Z,102538.19
2022-11-26T19:05:27.516Z,102534.53
2022-11-26T19:09:29.061Z,102538.63
2022-11-26T19:13:30.521Z,102529.63
2022-11-26T19:17:32.044Z,102530.72
2022-11-26T19:21:34.363Z,102538.03
2022-11-26T19:25:35.826Z,102535.44
2022-11-26T19:29:37.355Z,102539.25
2022-11-26T19:33:39.795Z,102525.28
2022-11-26T19:37:41.205Z,102524.31
2022-11-26T19:41:42.804Z,102517.00
2022-11-26T19:45:44.289Z,102523.06
2022-11-26T19:49:45.802Z,102525.56
2022-11-26T19:53:49.214Z,102529.72
2022-11-26T19:57:50.632Z,102531.94
2022-11-26T20:01:52.364Z,102527.59
2022-11-26T20:05:54.341Z,102530.53
2022-11-26T20:09:55.882Z,102529.19
2022-11-26T20:13:58.335Z,102526.78
2022-11-26T20:17:59.774Z,102533.69
2022-11-26T20:22:01.214Z,102537.72
2022-11-26T20:26:03.585Z,102545.22
2022-11-26T20:30:05.964Z,102543.25
2022-11-26T20:34:08.583Z,102542.66
2022-11-26T20:38:10.541Z,102543.97
2022-11-26T20:42:12.014Z,102538.44
2022-11-26T20:46:14.877Z,102542.25
2022-11-26T20:50:16.444Z,102538.72
2022-11-26T20:54:17.840Z,102543.72
2022-11-26T20:58:19.823Z,102542.47
2022-11-26T21:02:21.299Z,102543.78
2022-11-26T21:06:29.678Z,102539.44
2022-11-26T21:10:31.337Z,102529.91
2022-11-26T21:14:32.775Z,102532.66
2022-11-26T21:18:34.335Z,102530.53
2022-11-26T21:22:38.213Z,102536.63
2022-11-26T21:26:39.684Z,102541.28
2022-11-26T21:30:42.172Z,102534.66
2022-11-26T21:34:43.672Z,102546.03
2022-11-26T21:38:48.836Z,102544.97
2022-11-26T21:42:50.267Z,102537.91
2022-11-26T21:46:51.719Z,102537.47
2022-11-26T21:50:53.168Z,102540.88
2022-11-26T21:54:55.904Z,102540.50
2022-11-26T21:59:00.944Z,102531.84
2022-11-26T22:03:05.943Z,102539.53
2022-11-26T22:07:10.167Z,102539.88
2022-11-26T22:11:14.982Z,102537.94
2022-11-26T22:15:16.509Z,102546.38
2022-11-26T22:19:18.420Z,102542.88
2022-11-26T22:23:20.118Z,102543.50
2022-11-26T22:27:21.579Z,102551.75
2022-11-26T22:31:27.026Z,102552.72
2022-11-26T22:35:28.794Z,102546.91
2022-11-26T22:39:31.688Z,102549.59
2022-11-26T22:43:33.584Z,102543.81
2022-11-26T22:47:35.076Z,102539.84
2022-11-26T22:51:36.546Z,102542.91
2022-11-26T22:55:37.963Z,102541.50
2022-11-26T22:59:39.623Z,102539.91
2022-11-26T23:03:41.272Z,102541.25
2022-11-26T23:07:42.950Z,102539.84
2022-11-26T23:11:44.630Z,102534.63
2022-11-26T23:15:47.344Z,102530.72
2022-11-26T23:19:48.786Z,102524.56
2022-11-26T23:23:51.063Z,102520.31
2022-11-26T23:27:52.484Z,102516.75
2022-11-26T23:31:53.999Z,102533.03
2022-11-26T23:35:56.481Z,102533.03
2022-11-26T23:39:57.919Z,102533.97
2022-11-26T23:43:59.453Z,102521.19
2022-11-26T23:48:00.938Z,102523.66
2022-11-26T23:52:02.392Z,102516.53
2022-11-26T23:56:11.900Z,102519.28
